Time;durP1;ratioP1;P1;durP2;ratioP2;P2;SDS_P1;SDS_P2;PMS_P1;PMS_P2;Temp;Humidity;BMP_temperature;BMP_pressure;BME280_temperature;BME280_humidity;BME280_pressure;Samples;Min_cycle;Max_cycle;Signal;HPM_P1;HPM_P2
2023/06/05 00:02:07;;;;;;;8.75;4.30;;;12.30;99.90;;;;;;5091310;28;20492;-62
2023/06/05 00:04:35;;;;;;;9.75;4.03;;;12.30;99.90;;;;;;5091480;28;20051;-62
2023/06/05 00:07:02;;;;;;;5.80;3.13;;;12.30;99.90;;;;;;5074429;28;20044;-61
2023/06/05 00:09:27;;;;;;;7.22;3.10;;;12.20;99.90;;;;;;5092298;28;20097;-62
2023/06/05 00:11:53;;;;;;;5.75;3.10;;;12.20;99.90;;;;;;5091243;28;20408;-62
2023/06/05 00:14:19;;;;;;;6.82;3.45;;;12.20;99.90;;;;;;5092804;28;20048;-62
2023/06/05 00:16:45;;;;;;;6.65;3.20;;;12.20;99.90;;;;;;5092503;28;20048;-61
2023/06/05 00:19:11;;;;;;;5.57;3.13;;;12.20;99.90;;;;;;5091418;28;20040;-62
2023/06/05 00:21:36;;;;;;;6.28;2.90;;;12.20;99.90;;;;;;5090514;28;20118;-62
2023/06/05 00:24:02;;;;;;;5.13;2.60;;;12.20;99.90;;;;;;5091679;28;20123;-62
2023/06/05 00:26:28;;;;;;;6.30;2.92;;;12.20;99.90;;;;;;5091186;28;20052;-62
2023/06/05 00:28:54;;;;;;;4.70;2.50;;;12.10;99.90;;;;;;5090339;28;20036;-62
2023/06/05 00:31:21;;;;;;;5.10;2.53;;;12.10;99.90;;;;;;5092546;28;20396;-62
2023/06/05 00:33:48;;;;;;;5.90;2.63;;;12.10;99.90;;;;;;5091321;28;20071;-61
2023/06/05 00:36:13;;;;;;;5.18;1.98;;;12.10;99.90;;;;;;5091505;28;20481;-62
2023/06/05 00:38:39;;;;;;;5.15;2.42;;;12.10;99.90;;;;;;5092373;28;20051;-62
2023/06/05 00:41:05;;;;;;;5.78;2.50;;;12.10;99.90;;;;;;5092561;28;20500;-62
2023/06/05 00:43:30;;;;;;;5.07;2.58;;;12.10;99.90;;;;;;5091601;28;20040;-62
2023/06/05 00:46:05;;;;;;;4.82;2.13;;;12.10;99.90;;;;;;5092301;28;20554;-62
2023/06/05 00:48:33;;;;;;;4.20;1.95;;;12.10;99.90;;;;;;5090950;28;20048;-62
2023/06/05 00:50:59;;;;;;;4.00;2.05;;;12.10;99.90;;;;;;5089989;28;20115;-62
2023/06/05 00:53:26;;;;;;;4.90;2.53;;;12.10;99.90;;;;;;5091025;28;20097;-62
2023/06/05 00:55:52;;;;;;;4.78;2.28;;;12.10;99.90;;;;;;5074017;28;20048;-62
2023/06/05 00:58:18;;;;;;;5.78;2.25;;;12.10;99.90;;;;;;5091140;28;20039;-62
2023/06/05 01:00:45;;;;;;;4.55;2.08;;;12.10;99.90;;;;;;5092045;28;20036;-61
2023/06/05 01:03:12;;;;;;;4.80;1.92;;;12.10;99.90;;;;;;5074066;28;20044;-62
2023/06/05 01:05:38;;;;;;;4.75;2.33;;;12.10;99.90;;;;;;5091254;28;20040;-62
2023/06/05 01:08:05;;;;;;;5.82;2.45;;;12.10;99.90;;;;;;5092328;28;20040;-62
2023/06/05 01:10:32;;;;;;;4.57;2.17;;;12.10;99.90;;;;;;5073795;28;20040;-62
2023/06/05 01:13:05;;;;;;;5.15;1.95;;;12.10;99.90;;;;;;5089966;28;20564;-62
2023/06/05 01:15:33;;;;;;;5.00;1.95;;;12.10;99.90;;;;;;5090767;28;20044;-62
2023/06/05 01:18:00;;;;;;;4.80;2.13;;;12.00;99.90;;;;;;5093050;28;20563;-62
2023/06/05 01:20:33;;;;;;;4.97;2.10;;;12.00;99.90;;;;;;5094889;28;20385;-62
2023/06/05 01:22:58;;;;;;;4.97;2.60;;;12.00;99.90;;;;;;5094822;28;20059;-62
2023/06/05 01:25:25;;;;;;;4.80;2.40;;;12.00;99.90;;;;;;5095178;28;20048;-62
2023/06/05 01:28:06;;;;;;;5.63;2.72;;;12.00;99.90;;;;;;5077947;28;20044;-62
2023/06/05 01:30:44;;;;;;;5.47;2.97;;;12.00;99.90;;;;;;5095963;28;20032;-62
2023/06/05 01:33:12;;;;;;;6.57;2.33;;;12.00;99.90;;;;;;5093679;28;20169;-62
2023/06/05 01:35:41;;;;;;;7.15;2.60;;;12.00;99.90;;;;;;5095624;28;20070;-62
2023/06/05 01:38:09;;;;;;;5.18;2.58;;;12.00;99.90;;;;;;5096025;28;20402;-62
2023/06/05 01:40:36;;;;;;;5.90;2.65;;;12.00;99.90;;;;;;5094965;28;20118;-62
2023/06/05 01:43:03;;;;;;;6.38;3.00;;;12.00;99.90;;;;;;5094470;28;20082;-62
2023/06/05 01:45:30;;;;;;;6.30;3.20;;;12.00;99.90;;;;;;5094153;28;20048;-62
2023/06/05 01:47:56;;;;;;;6.50;3.40;;;12.00;99.90;;;;;;5093581;28;20036;-62
2023/06/05 01:50:22;;;;;;;8.77;4.50;;;12.00;99.90;;;;;;5095624;28;20089;-62
2023/06/05 01:52:49;;;;;;;6.43;3.33;;;12.00;99.90;;;;;;5094023;28;20039;-62
2023/06/05 01:55:23;;;;;;;6.20;3.83;;;12.00;99.90;;;;;;5093934;28;20036;-62
2023/06/05 01:57:49;;;;;;;6.78;4.35;;;12.00;99.90;;;;;;5094237;28;20472;-62
2023/06/05 02:00:15;;;;;;;7.57;4.55;;;12.00;99.90;;;;;;5094541;28;20036;-62
2023/06/05 02:02:49;;;;;;;7.50;4.40;;;12.00;99.90;;;;;;5093928;28;20489;-62
2023/06/05 02:05:19;;;;;;;8.48;4.97;;;12.00;99.90;;;;;;5093931;28;20087;-62
2023/06/05 02:07:49;;;;;;;8.43;4.78;;;12.00;99.90;;;;;;5094500;28;20036;-61
2023/06/05 02:10:15;;;;;;;8.55;5.22;;;11.90;99.90;;;;;;5094972;28;20088;-62
2023/06/05 02:12:42;;;;;;;7.82;4.28;;;11.90;99.90;;;;;;5084634;28;20093;-62
2023/06/05 02:15:12;;;;;;;9.10;4.30;;;12.00;99.90;;;;;;5094671;28;20503;-61
2023/06/05 02:17:39;;;;;;;6.97;4.20;;;12.00;99.90;;;;;;5094062;28;20365;-62
2023/06/05 02:20:05;;;;;;;7.95;4.78;;;12.00;99.90;;;;;;5076957;28;20047;-62
2023/06/05 02:22:30;;;;;;;7.20;4.60;;;12.00;99.90;;;;;;5092825;28;20036;-62
2023/06/05 02:24:56;;;;;;;9.52;4.25;;;12.00;99.90;;;;;;5093789;28;20388;-62
2023/06/05 02:27:24;;;;;;;7.90;4.80;;;12.00;99.90;;;;;;5094734;28;20055;-61
2023/06/05 02:29:50;;;;;;;7.72;5.18;;;12.00;99.90;;;;;;5093170;28;20040;-62
2023/06/05 02:32:16;;;;;;;9.15;5.20;;;12.10;99.90;;;;;;5094737;28;20065;-61
2023/06/05 02:34:41;;;;;;;9.15;5.78;;;12.10;99.90;;;;;;5093422;28;20061;-62
2023/06/05 02:37:08;;;;;;;8.13;5.47;;;12.10;99.90;;;;;;5075975;28;20043;-62
2023/06/05 02:39:34;;;;;;;7.55;4.88;;;12.20;99.90;;;;;;5095869;28;20090;-62
2023/06/05 02:41:59;;;;;;;8.20;4.65;;;12.20;99.90;;;;;;5096724;28;20079;-62
2023/06/05 02:44:26;;;;;;;8.18;4.88;;;12.20;99.90;;;;;;5114158;28;20143;-62
2023/06/05 02:46:51;;;;;;;7.85;4.50;;;12.20;99.90;;;;;;5114764;28;20092;-61
2023/06/05 02:49:17;;;;;;;7.53;4.97;;;12.20;99.90;;;;;;5113174;28;20051;-62
2023/06/05 02:51:43;;;;;;;8.98;5.32;;;12.20;99.90;;;;;;5114558;28;20043;-62
2023/06/05 02:54:08;;;;;;;9.55;4.95;;;12.20;99.90;;;;;;5113623;28;20061;-62
2023/06/05 02:56:34;;;;;;;7.97;4.90;;;12.20;99.90;;;;;;5114232;28;20035;-62
2023/06/05 02:59:02;;;;;;;8.00;4.50;;;12.20;99.90;;;;;;5114642;27;20126;-62
2023/06/05 03:01:34;;;;;;;7.03;4.38;;;12.10;99.90;;;;;;5107541;28;20040;-62
2023/06/05 03:04:02;;;;;;;7.18;4.22;;;12.10;99.90;;;;;;5083810;28;20489;-62
2023/06/05 03:06:33;;;;;;;6.22;3.50;;;12.10;99.90;;;;;;5092673;28;20123;-62
2023/06/05 03:08:59;;;;;;;6.95;3.65;;;12.10;99.90;;;;;;5112559;28;20039;-62
2023/06/05 03:11:26;;;;;;;6.95;3.70;;;12.10;99.90;;;;;;5113515;28;20046;-62
2023/06/05 03:13:52;;;;;;;8.68;3.15;;;12.10;99.90;;;;;;5096404;28;20062;-62
2023/06/05 03:16:18;;;;;;;7.53;3.50;;;12.00;99.90;;;;;;5114216;28;20036;-62
2023/06/05 03:18:45;;;;;;;6.93;2.97;;;12.10;99.90;;;;;;5113331;28;20072;-62
2023/06/05 03:21:11;;;;;;;6.03;2.45;;;12.10;99.90;;;;;;5093220;28;20459;-62
2023/06/05 03:23:37;;;;;;;5.10;2.70;;;12.10;99.90;;;;;;5092821;28;20036;-62
2023/06/05 03:26:03;;;;;;;6.28;2.28;;;12.00;99.90;;;;;;5111384;28;20446;-62
2023/06/05 03:28:33;;;;;;;4.97;2.47;;;12.00;99.90;;;;;;5112598;28;20477;-62
2023/06/05 03:30:59;;;;;;;5.95;2.30;;;12.00;99.90;;;;;;5112646;28;20044;-62
2023/06/05 03:33:25;;;;;;;5.53;2.22;;;12.00;99.90;;;;;;5105251;28;20036;-62
2023/06/05 03:35:52;;;;;;;5.35;2.70;;;12.00;99.90;;;;;;5107987;28;20447;-62
2023/06/05 03:38:18;;;;;;;5.75;2.40;;;12.00;99.90;;;;;;5113879;28;20100;-62
2023/06/05 03:40:44;;;;;;;6.20;2.10;;;12.00;99.90;;;;;;5113268;28;20035;-62
2023/06/05 03:43:09;;;;;;;5.10;2.30;;;12.00;99.90;;;;;;5113768;28;20038;-62
2023/06/05 03:45:36;;;;;;;4.57;2.08;;;12.00;99.90;;;;;;5111766;28;20082;-62
2023/06/05 03:48:02;;;;;;;5.35;2.50;;;11.90;99.90;;;;;;5113893;28;20046;-62
2023/06/05 03:50:29;;;;;;;5.30;2.15;;;11.90;99.90;;;;;;5113778;28;20044;-62
2023/06/05 03:53:02;;;;;;;4.68;2.08;;;11.90;99.90;;;;;;5111737;28;20074;-62
2023/06/05 03:55:40;;;;;;;5.85;2.30;;;11.80;99.90;;;;;;5112532;28;20051;-62
2023/06/05 03:58:13;;;;;;;5.13;2.20;;;11.80;99.90;;;;;;5113811;28;20126;-62
2023/06/05 04:00:40;;;;;;;5.05;2.08;;;11.80;99.90;;;;;;5112835;28;20119;-62
2023/06/05 04:03:05;;;;;;;4.80;1.92;;;11.80;99.90;;;;;;5093924;28;20047;-62
2023/06/05 04:05:31;;;;;;;5.72;2.05;;;11.80;99.90;;;;;;5093090;28;20384;-63
2023/06/05 04:07:57;;;;;;;5.28;2.17;;;11.90;99.90;;;;;;5090900;28;20487;-62
2023/06/05 04:10:22;;;;;;;6.47;2.78;;;11.90;99.90;;;;;;5092956;28;20040;-62
2023/06/05 04:12:49;;;;;;;4.47;2.10;;;11.90;99.90;;;;;;5091365;28;20085;-61
2023/06/05 04:15:14;;;;;;;4.25;2.10;;;11.90;99.90;;;;;;5092196;28;20044;-62
2023/06/05 04:17:40;;;;;;;5.72;2.28;;;12.00;99.90;;;;;;5092591;28;20165;-62
2023/06/05 04:20:13;;;;;;;5.00;2.17;;;12.00;99.90;;;;;;5093078;28;20131;-62
2023/06/05 04:22:39;;;;;;;6.22;2.20;;;12.00;99.90;;;;;;5091886;28;20029;-62
2023/06/05 04:25:05;;;;;;;4.97;2.53;;;12.00;99.90;;;;;;5092900;28;20044;-62
2023/06/05 04:27:30;;;;;;;5.05;2.38;;;12.10;99.90;;;;;;5092276;28;20117;-62
2023/06/05 04:29:56;;;;;;;5.55;2.40;;;12.10;99.90;;;;;;5091883;28;20039;-61
2023/06/05 04:32:22;;;;;;;4.30;2.15;;;12.10;99.90;;;;;;5091554;28;20047;-62
2023/06/05 04:34:48;;;;;;;4.32;2.35;;;12.10;99.90;;;;;;5091785;28;20032;-62
2023/06/05 04:37:13;;;;;;;5.43;2.17;;;12.10;99.90;;;;;;5091061;28;20049;-62
2023/06/05 04:39:40;;;;;;;4.50;2.15;;;12.10;99.90;;;;;;5092371;28;20093;-62
2023/06/05 04:42:07;;;;;;;4.30;1.98;;;12.10;99.90;;;;;;5090523;28;20051;-62
2023/06/05 04:44:32;;;;;;;5.15;2.08;;;12.10;99.90;;;;;;5092170;28;20044;-62
2023/06/05 04:46:58;;;;;;;5.25;2.22;;;12.20;99.90;;;;;;5091218;28;20496;-62
2023/06/05 04:49:24;;;;;;;5.35;2.33;;;12.20;99.90;;;;;;5091659;28;20549;-62
2023/06/05 04:51:50;;;;;;;4.03;1.88;;;12.20;99.90;;;;;;5091450;28;20028;-62
2023/06/05 04:54:15;;;;;;;4.38;1.83;;;12.20;99.90;;;;;;5074174;28;20040;-62
2023/06/05 04:56:41;;;;;;;5.70;2.50;;;12.20;99.90;;;;;;5073158;28;20400;-61
2023/06/05 04:59:07;;;;;;;4.82;2.17;;;12.20;99.90;;;;;;5091115;28;20115;-62
2023/06/05 05:01:33;;;;;;;5.25;2.38;;;12.30;99.90;;;;;;5090955;28;20511;-62
2023/06/05 05:03:59;;;;;;;4.80;2.00;;;12.30;99.90;;;;;;5090073;28;20048;-62
2023/06/05 05:06:25;;;;;;;5.03;2.70;;;12.30;99.90;;;;;;5091973;28;20511;-62
2023/06/05 05:08:51;;;;;;;4.50;2.25;;;12.40;99.90;;;;;;5092083;28;20047;-62
2023/06/05 05:11:17;;;;;;;4.55;2.15;;;12.40;99.90;;;;;;5091014;28;20032;-62
2023/06/05 05:13:43;;;;;;;4.85;2.30;;;12.40;99.90;;;;;;5090896;28;20044;-62
2023/06/05 05:16:10;;;;;;;6.70;1.95;;;12.40;99.90;;;;;;5090775;28;20396;-62
2023/06/05 05:18:40;;;;;;;4.72;2.25;;;12.40;99.90;;;;;;5091469;28;20040;-62
2023/06/05 05:21:06;;;;;;;5.45;2.08;;;12.40;99.90;;;;;;5092165;28;20519;-62
2023/06/05 05:23:34;;;;;;;4.78;2.38;;;12.50;99.90;;;;;;5091910;28;20048;-62
2023/06/05 05:26:01;;;;;;;4.95;1.95;;;12.50;99.90;;;;;;5090805;28;20124;-62
2023/06/05 05:28:27;;;;;;;4.60;2.33;;;12.60;99.90;;;;;;5091860;28;20036;-62
2023/06/05 05:30:55;;;;;;;5.20;2.17;;;12.60;99.90;;;;;;5091177;28;20036;-62
2023/06/05 05:33:22;;;;;;;5.22;2.20;;;12.60;99.90;;;;;;5105056;28;20051;-62
2023/06/05 05:35:48;;;;;;;5.80;2.38;;;12.60;99.90;;;;;;5111679;28;20044;-62
2023/06/05 05:38:14;;;;;;;4.50;2.33;;;12.70;99.90;;;;;;5093193;28;20083;-62
2023/06/05 05:40:40;;;;;;;5.32;2.10;;;12.70;99.90;;;;;;5112026;28;20047;-62
2023/06/05 05:43:05;;;;;;;5.53;2.15;;;12.70;99.90;;;;;;5113915;28;20073;-62
2023/06/05 05:45:31;;;;;;;5.28;2.17;;;12.80;99.90;;;;;;5110153;28;20079;-62
2023/06/05 05:47:57;;;;;;;4.70;2.17;;;12.70;99.90;;;;;;5112098;28;20040;-62
2023/06/05 05:50:23;;;;;;;5.28;2.08;;;12.80;99.90;;;;;;5110784;28;20401;-62
2023/06/05 05:52:48;;;;;;;4.57;2.42;;;12.80;99.90;;;;;;5111087;28;20490;-62
2023/06/05 05:55:14;;;;;;;5.50;2.63;;;12.80;99.90;;;;;;5110909;28;20047;-62
2023/06/05 05:57:40;;;;;;;5.93;3.05;;;12.80;99.90;;;;;;5111392;28;20040;-62
2023/06/05 06:00:12;;;;;;;5.00;2.75;;;12.80;99.90;;;;;;5103593;28;20039;-62
2023/06/05 06:02:41;;;;;;;7.95;3.00;;;12.80;99.90;;;;;;5096596;28;20047;-62
2023/06/05 06:05:08;;;;;;;6.03;3.30;;;12.80;99.90;;;;;;5114596;28;20118;-62
2023/06/05 06:07:35;;;;;;;7.45;3.22;;;12.80;99.90;;;;;;5108605;28;20088;-63
2023/06/05 06:10:02;;;;;;;5.88;3.15;;;12.80;99.90;;;;;;5094635;28;20052;-62
2023/06/05 06:12:28;;;;;;;6.07;3.00;;;12.80;99.90;;;;;;5103397;28;20059;-61
2023/06/05 06:14:56;;;;;;;7.72;3.40;;;12.90;99.90;;;;;;5110454;28;20568;-62
2023/06/05 06:17:23;;;;;;;7.25;3.47;;;12.90;99.90;;;;;;5112545;28;20496;-62
2023/06/05 06:19:49;;;;;;;6.88;3.42;;;12.90;99.90;;;;;;5112106;27;20437;-62
2023/06/05 06:22:15;;;;;;;5.43;3.13;;;12.90;99.90;;;;;;5110872;28;20075;-62
2023/06/05 06:24:42;;;;;;;6.30;2.95;;;12.90;99.90;;;;;;5109043;28;20070;-62
2023/06/05 06:27:12;;;;;;;7.82;3.53;;;12.90;99.90;;;;;;5109287;28;20043;-61
2023/06/05 06:29:48;;;;;;;7.38;3.40;;;12.90;99.90;;;;;;5111386;28;20051;-61
2023/06/05 06:32:16;;;;;;;7.97;4.00;;;13.00;99.90;;;;;;5100084;28;20093;-62
2023/06/05 06:34:44;;;;;;;7.65;3.58;;;13.00;99.90;;;;;;5099191;28;20480;-61
2023/06/05 06:37:14;;;;;;;6.72;3.40;;;13.00;99.90;;;;;;5107782;27;20467;-62
2023/06/05 06:39:43;;;;;;;9.50;3.75;;;13.00;99.90;;;;;;5111319;28;20051;-61
2023/06/05 06:42:10;;;;;;;5.68;3.50;;;13.00;99.90;;;;;;5109421;28;20052;-62
2023/06/05 06:44:37;;;;;;;7.32;3.97;;;13.10;99.90;;;;;;5094582;28;20123;-62
2023/06/05 06:47:03;;;;;;;7.10;3.03;;;13.10;99.90;;;;;;5105574;28;20096;-61
2023/06/05 06:49:29;;;;;;;6.85;3.72;;;13.10;99.90;;;;;;5093649;28;20050;-61
2023/06/05 06:51:54;;;;;;;6.18;3.50;;;13.20;99.90;;;;;;5092355;28;20039;-62
2023/06/05 06:54:21;;;;;;;8.73;3.47;;;13.20;99.90;;;;;;5107176;28;20055;-62
2023/06/05 06:56:47;;;;;;;8.90;4.07;;;13.30;99.90;;;;;;5111902;28;20039;-62
2023/06/05 06:59:13;;;;;;;7.15;3.15;;;13.30;99.90;;;;;;5106456;28;20046;-62
2023/06/05 07:01:47;;;;;;;7.80;3.25;;;13.40;99.90;;;;;;5103161;28;20043;-62
2023/06/05 07:04:16;;;;;;;4.63;2.67;;;13.40;99.90;;;;;;5111401;28;20046;-62
2023/06/05 07:06:45;;;;;;;7.72;2.90;;;13.40;99.90;;;;;;5095484;28;20044;-62
2023/06/05 07:09:57;;;;;;;6.57;3.05;;;13.50;99.90;;;;;;5093156;28;20052;-62
2023/06/05 07:12:23;;;;;;;5.90;3.33;;;13.50;99.90;;;;;;5103561;28;20070;-62
2023/06/05 07:14:49;;;;;;;10.13;3.33;;;13.50;99.90;;;;;;5089490;28;20052;-62
2023/06/05 07:17:14;;;;;;;6.15;3.25;;;13.60;99.90;;;;;;5098744;28;20043;-62
2023/06/05 07:19:40;;;;;;;5.72;3.05;;;13.70;99.90;;;;;;5110518;28;20047;-62
2023/06/05 07:22:06;;;;;;;6.75;3.00;;;13.70;99.90;;;;;;5110168;28;20108;-62
2023/06/05 07:24:35;;;;;;;5.68;2.67;;;13.80;99.90;;;;;;5109565;28;20086;-62
2023/06/05 07:27:02;;;;;;;7.90;2.88;;;13.80;99.90;;;;;;5110184;28;20138;-62
2023/06/05 07:29:28;;;;;;;5.85;3.20;;;13.90;99.90;;;;;;5101411;28;20043;-62
2023/06/05 07:31:55;;;;;;;5.55;3.05;;;14.00;99.90;;;;;;5095557;28;20039;-62
2023/06/05 07:34:22;;;;;;;5.85;2.65;;;14.10;99.90;;;;;;5103921;28;20051;-62
2023/06/05 07:36:50;;;;;;;6.05;2.60;;;14.10;99.90;;;;;;5108828;28;20439;-62
2023/06/05 07:39:16;;;;;;;6.32;2.90;;;14.10;99.90;;;;;;5088661;28;20051;-62
2023/06/05 07:41:43;;;;;;;6.35;3.35;;;14.20;99.90;;;;;;5105253;27;20100;-62
2023/06/05 07:44:15;;;;;;;5.93;2.67;;;14.30;99.90;;;;;;5093539;27;20048;-61
2023/06/05 07:46:45;;;;;;;6.95;2.78;;;14.40;99.90;;;;;;5093115;28;20044;-61
2023/06/05 07:49:11;;;;;;;6.13;2.80;;;14.50;99.90;;;;;;5089215;28;20044;-61
2023/06/05 07:51:37;;;;;;;5.22;2.85;;;14.60;99.90;;;;;;5103948;28;20036;-61
2023/06/05 07:54:10;;;;;;;6.65;3.45;;;14.70;99.90;;;;;;5099133;28;20038;-62
2023/06/05 07:56:38;;;;;;;6.28;3.35;;;14.70;99.90;;;;;;5104996;28;20058;-62
2023/06/05 07:59:05;;;;;;;5.90;2.88;;;14.70;99.90;;;;;;5101376;28;20048;-62
2023/06/05 08:01:36;;;;;;;5.72;3.05;;;14.70;99.90;;;;;;5108590;28;20039;-61
2023/06/05 08:04:03;;;;;;;4.68;2.65;;;14.70;99.90;;;;;;5108227;28;20032;-62
2023/06/05 08:06:29;;;;;;;6.32;2.92;;;14.80;99.90;;;;;;5108285;28;20805;-62
2023/06/05 08:08:55;;;;;;;7.38;3.60;;;14.80;99.90;;;;;;5110364;28;20050;-62
2023/06/05 08:11:21;;;;;;;5.18;2.55;;;14.90;99.90;;;;;;5109991;28;20043;-62
2023/06/05 08:13:47;;;;;;;5.85;3.15;;;15.00;99.90;;;;;;5108071;28;20101;-61
2023/06/05 08:16:15;;;;;;;4.60;2.13;;;15.10;99.90;;;;;;5110193;28;20058;-61
2023/06/05 08:18:41;;;;;;;5.47;2.97;;;15.10;99.90;;;;;;5110176;28;20044;-61
2023/06/05 08:21:06;;;;;;;6.75;3.10;;;15.20;99.90;;;;;;5109135;28;20115;-61
2023/06/05 08:23:32;;;;;;;5.93;3.25;;;15.20;99.90;;;;;;5090124;28;20492;-61
2023/06/05 08:25:58;;;;;;;6.88;3.33;;;15.30;99.90;;;;;;5098424;28;20044;-63
2023/06/05 08:28:24;;;;;;;5.35;2.97;;;15.50;99.90;;;;;;5095233;28;20703;-61
2023/06/05 08:30:51;;;;;;;6.03;2.97;;;15.70;99.90;;;;;;5111815;28;20067;-62
2023/06/05 08:33:21;;;;;;;5.28;3.00;;;15.80;99.90;;;;;;5094843;28;20054;-61
2023/06/05 08:35:46;;;;;;;6.50;3.72;;;15.80;99.90;;;;;;5112299;28;20076;-63
2023/06/05 08:38:12;;;;;;;5.47;2.95;;;15.80;99.90;;;;;;5093066;28;20118;-61
2023/06/05 08:40:39;;;;;;;7.88;3.17;;;15.70;99.90;;;;;;5111589;28;20047;-61
2023/06/05 08:43:05;;;;;;;6.07;3.60;;;15.90;99.90;;;;;;5104920;28;20554;-62
2023/06/05 08:45:31;;;;;;;6.15;3.97;;;16.00;99.90;;;;;;5091649;28;20076;-62
2023/06/05 08:48:00;;;;;;;7.78;3.90;;;16.10;99.90;;;;;;5101531;28;20114;-60
2023/06/05 08:50:28;;;;;;;5.30;3.20;;;16.30;99.90;;;;;;5109624;28;20035;-61
2023/06/05 08:52:58;;;;;;;6.70;2.92;;;16.40;99.90;;;;;;5112835;28;20491;-62
2023/06/05 08:55:25;;;;;;;5.53;2.80;;;16.30;99.90;;;;;;5091831;28;20049;-62
2023/06/05 08:57:52;;;;;;;5.88;3.35;;;16.30;99.90;;;;;;5108008;28;20543;-63
2023/06/05 09:00:18;;;;;;;6.25;3.55;;;16.30;99.90;;;;;;5101898;28;20027;-62
2023/06/05 09:02:43;;;;;;;5.47;2.95;;;16.20;99.90;;;;;;5091285;28;20495;-63
2023/06/05 09:05:10;;;;;;;5.60;3.08;;;16.20;99.90;;;;;;5085563;28;20112;-64
2023/06/05 09:07:38;;;;;;;7.18;3.85;;;16.10;99.90;;;;;;5106941;28;20102;-64
2023/06/05 09:10:06;;;;;;;5.90;3.22;;;15.90;99.90;;;;;;5092559;28;20119;-63
2023/06/05 09:12:32;;;;;;;8.35;3.10;;;15.90;99.90;;;;;;5073951;28;20052;-63
2023/06/05 09:14:57;;;;;;;7.05;3.42;;;15.80;99.90;;;;;;5103484;28;20137;-63
2023/06/05 09:17:23;;;;;;;6.00;2.90;;;15.70;99.90;;;;;;5110341;28;20036;-63
2023/06/05 09:19:50;;;;;;;6.10;2.90;;;15.80;99.90;;;;;;5110725;28;20044;-63
2023/06/05 09:22:19;;;;;;;5.53;2.90;;;15.90;99.90;;;;;;5109551;28;20032;-62
2023/06/05 09:24:56;;;;;;;5.80;3.30;;;15.90;99.90;;;;;;5096032;28;20396;-63
2023/06/05 09:27:22;;;;;;;8.32;3.90;;;16.00;99.90;;;;;;5092109;28;20036;-64
2023/06/05 09:29:48;;;;;;;6.00;3.28;;;16.00;99.90;;;;;;5094520;28;20353;-65
2023/06/05 09:32:20;;;;;;;4.78;2.60;;;15.80;99.90;;;;;;5103161;28;20468;-63
2023/06/05 09:34:59;;;;;;;7.28;2.95;;;15.70;99.90;;;;;;5074130;28;20039;-61
2023/06/05 09:37:36;;;;;;;5.35;3.40;;;15.60;99.90;;;;;;5098940;28;20048;-61
2023/06/05 09:40:04;;;;;;;5.25;2.85;;;15.70;99.90;;;;;;5094756;28;20051;-61
2023/06/05 09:42:34;;;;;;;5.38;2.58;;;15.90;99.90;;;;;;5095956;28;20385;-61
2023/06/05 09:45:00;;;;;;;7.03;2.67;;;16.00;99.90;;;;;;5096187;28;20047;-61
2023/06/05 09:47:26;;;;;;;5.28;2.47;;;16.00;99.90;;;;;;5104081;28;20038;-62
2023/06/05 09:49:52;;;;;;;6.25;2.90;;;16.10;99.90;;;;;;5114485;28;20036;-62
2023/06/05 09:52:18;;;;;;;5.75;3.03;;;15.90;99.90;;;;;;5099940;28;20032;-63
2023/06/05 09:54:45;;;;;;;7.53;3.20;;;15.90;99.90;;;;;;5096570;28;20488;-61
2023/06/05 09:57:12;;;;;;;6.57;3.60;;;15.80;99.90;;;;;;5097605;28;20044;-63
2023/06/05 09:59:53;;;;;;;5.22;3.35;;;15.70;99.90;;;;;;5095245;28;20067;-63
2023/06/05 10:02:32;;;;;;;6.53;3.83;;;15.70;99.90;;;;;;5101307;28;20485;-63
2023/06/05 10:05:02;;;;;;;5.57;3.45;;;15.80;99.90;;;;;;5109325;28;20093;-64
2023/06/05 10:07:29;;;;;;;5.53;2.97;;;15.80;99.90;;;;;;5103554;28;20118;-64
2023/06/05 10:09:56;;;;;;;5.70;3.17;;;15.90;99.90;;;;;;5100349;28;20040;-63
2023/06/05 10:12:26;;;;;;;6.18;3.05;;;16.00;99.90;;;;;;5101802;28;20052;-62
2023/06/05 10:14:54;;;;;;;5.15;3.00;;;16.10;99.90;;;;;;5102533;28;20036;-62
2023/06/05 10:17:21;;;;;;;7.00;3.53;;;16.20;99.90;;;;;;5107018;28;20077;-63
2023/06/05 10:19:47;;;;;;;7.95;3.20;;;16.40;99.90;;;;;;5104618;28;20090;-64
2023/06/05 10:22:13;;;;;;;5.47;2.92;;;16.50;99.90;;;;;;5095159;28;20076;-64
2023/06/05 10:24:47;;;;;;;7.47;3.55;;;16.60;99.90;;;;;;5094708;28;20412;-65
2023/06/05 10:27:21;;;;;;;8.27;3.83;;;16.70;99.90;;;;;;5104840;28;20032;-65
2023/06/05 10:30:13;;;;;;;7.00;3.17;;;16.90;99.90;;;;;;5096680;28;20457;-65
2023/06/05 10:33:01;;;;;;;5.90;3.20;;;17.00;99.90;;;;;;5103988;28;20469;-64
2023/06/05 10:35:41;;;;;;;7.20;3.05;;;17.00;99.90;;;;;;5094103;28;20047;-64
2023/06/05 10:38:25;;;;;;;8.38;3.92;;;17.10;99.90;;;;;;5077853;28;20046;-64
2023/06/05 10:40:59;;;;;;;5.75;3.60;;;17.30;99.90;;;;;;5093791;28;20471;-63
2023/06/05 10:43:29;;;;;;;8.25;3.53;;;17.40;99.90;;;;;;5098267;27;20401;-64
2023/06/05 10:45:56;;;;;;;6.60;3.85;;;17.50;99.90;;;;;;5123153;27;20119;-63
2023/06/05 10:48:41;;;;;;;5.90;3.10;;;17.60;99.90;;;;;;5112714;28;20430;-63
2023/06/05 10:51:43;;;;;;;5.82;3.50;;;17.60;99.90;;;;;;5108735;28;20051;-63
2023/06/05 10:54:24;;;;;;;6.00;3.47;;;17.70;99.90;;;;;;5092845;28;20050;-63
2023/06/05 10:56:59;;;;;;;6.63;3.53;;;17.70;99.90;;;;;;5091593;28;20047;-63
2023/06/05 10:59:31;;;;;;;4.95;2.75;;;17.50;99.90;;;;;;5091902;28;20032;-63
2023/06/05 11:02:10;;;;;;;5.13;2.70;;;17.10;99.90;;;;;;5095008;28;20039;-63
2023/06/05 11:04:47;;;;;;;6.07;3.55;;;17.00;99.90;;;;;;5093198;28;20098;-64
2023/06/05 11:07:28;;;;;;;5.00;2.95;;;17.00;99.90;;;;;;5092952;28;20062;-64
2023/06/05 11:10:03;;;;;;;6.90;3.38;;;17.10;99.90;;;;;;5095593;28;20362;-66
2023/06/05 11:12:43;;;;;;;6.07;3.28;;;17.10;99.90;;;;;;5093745;28;20602;-67
2023/06/05 11:15:36;;;;;;;4.97;2.72;;;17.20;99.90;;;;;;5092771;28;20043;-63
2023/06/05 11:18:30;;;;;;;5.40;2.70;;;17.20;99.90;;;;;;5099156;28;20048;-63
2023/06/05 11:20:57;;;;;;;4.70;2.45;;;17.20;99.90;;;;;;5092732;28;20047;-65
2023/06/05 11:23:28;;;;;;;4.72;2.38;;;17.10;99.90;;;;;;5101962;28;20048;-64
2023/06/05 11:25:58;;;;;;;5.35;2.85;;;16.90;99.90;;;;;;5114314;28;20065;-62
2023/06/05 11:28:40;;;;;;;5.03;2.58;;;16.90;99.90;;;;;;5097366;28;20500;-64
2023/06/05 11:31:06;;;;;;;4.75;2.47;;;17.00;99.90;;;;;;5098818;28;20063;-62
2023/06/05 11:33:32;;;;;;;5.60;2.75;;;17.20;99.90;;;;;;5113865;28;20036;-62
2023/06/05 11:36:03;;;;;;;6.00;2.60;;;17.20;99.90;;;;;;5098537;28;20047;-63
2023/06/05 11:38:29;;;;;;;4.78;2.42;;;17.40;99.90;;;;;;5100163;28;20054;-61
2023/06/05 11:40:57;;;;;;;4.82;2.17;;;17.60;99.90;;;;;;5099566;28;20376;-64
2023/06/05 11:43:23;;;;;;;4.90;2.90;;;17.70;99.90;;;;;;5092456;28;20407;-64
2023/06/05 11:45:57;;;;;;;5.22;2.40;;;17.90;99.90;;;;;;5091334;28;20043;-64
2023/06/05 11:48:24;;;;;;;4.78;2.78;;;18.00;99.90;;;;;;5093374;28;20085;-64
2023/06/05 11:50:58;;;;;;;6.25;3.10;;;18.00;99.90;;;;;;5091171;28;20032;-65
2023/06/05 11:53:26;;;;;;;5.78;3.00;;;18.00;99.90;;;;;;5093256;28;20115;-64
2023/06/05 11:58:28;;;;;;;5.88;3.60;;;17.40;99.90;;;;;;5092288;28;20047;-62
2023/06/05 12:01:12;;;;;;;6.10;3.58;;;17.50;99.90;;;;;;5092980;28;20036;-65
2023/06/05 12:03:39;;;;;;;6.95;4.22;;;17.60;99.90;;;;;;5091963;28;20047;-65
2023/06/05 12:06:05;;;;;;;6.97;3.20;;;17.70;99.90;;;;;;5074219;28;20039;-64
2023/06/05 12:08:33;;;;;;;6.38;3.95;;;17.80;99.90;;;;;;5091758;28;20562;-63
2023/06/05 12:11:00;;;;;;;7.35;3.78;;;18.00;99.90;;;;;;5092908;28;20050;-63
2023/06/05 12:13:46;;;;;;;7.03;4.30;;;17.90;99.90;;;;;;5091859;28;20386;-61
2023/06/05 12:16:12;;;;;;;7.75;3.72;;;17.60;99.90;;;;;;5091434;28;20054;-62
2023/06/05 12:18:37;;;;;;;7.55;4.40;;;17.60;99.90;;;;;;5091902;28;20119;-62
2023/06/05 12:21:06;;;;;;;9.25;4.47;;;17.70;99.90;;;;;;5091245;28;20048;-63
2023/06/05 12:23:32;;;;;;;8.75;4.55;;;17.80;99.90;;;;;;5092840;28;20054;-62
2023/06/05 12:26:03;;;;;;;8.25;5.15;;;17.90;99.90;;;;;;5090498;28;20056;-64
2023/06/05 12:28:29;;;;;;;7.50;4.82;;;17.90;99.90;;;;;;5074623;28;20556;-64
2023/06/05 12:30:56;;;;;;;7.85;5.07;;;17.80;99.90;;;;;;5091270;28;20043;-62
2023/06/05 12:33:24;;;;;;;8.07;4.70;;;17.80;99.90;;;;;;5092194;28;20491;-62
2023/06/05 12:36:10;;;;;;;8.10;5.25;;;17.80;99.90;;;;;;5091534;28;20066;-63
2023/06/05 12:38:46;;;;;;;9.35;5.28;;;17.90;99.90;;;;;;5091423;28;20079;-63
2023/06/05 12:41:11;;;;;;;6.93;4.25;;;17.90;99.90;;;;;;5091463;28;20507;-65
2023/06/05 12:43:38;;;;;;;7.65;4.20;;;17.80;99.90;;;;;;5092601;28;20044;-65
2023/06/05 12:46:05;;;;;;;7.63;4.55;;;17.90;99.90;;;;;;5074437;28;20066;-64
2023/06/05 12:48:31;;;;;;;9.45;4.90;;;17.70;99.90;;;;;;5091677;28;20075;-64
2023/06/05 12:50:57;;;;;;;7.63;4.72;;;17.60;99.90;;;;;;5092140;28;20454;-63
2023/06/05 12:53:23;;;;;;;7.05;4.28;;;17.70;99.90;;;;;;5090953;28;20036;-63
2023/06/05 12:55:48;;;;;;;7.93;4.75;;;17.60;99.90;;;;;;5090571;28;20038;-64
2023/06/05 12:58:14;;;;;;;8.13;4.05;;;17.50;99.90;;;;;;5092197;28;20050;-63